Greenwood Leflore

About
Name: Greenwood Leflore
Identifier:  GWO/KGWO
Local Time:  23. Jul 07:07 CDT
Location
Flights per Day
1 flights
Distance: 424km (263mi)
Punctuality
63% (0 flights per day delayed)
Delay Average: 7 minutes
Current Weather
 22 C (Humidity: 83%)
  8kt (14km/h / 9mph) from 20°
  Few clouds at 1,300 feet (396 meter)
  Scattered clouds at 5,500 feet (1,676 meter)
  Overcast at 10,000 feet (3,048 meter)
  16km (10 mi.)
 METAR KGWO 231128Z AUTO 02008KT 10SM FEW013 SCT055 OVC100 22/19 A3000 RMK AO2 T02170194 $

Current Flights

Departures
Number Departure To Airline
Arrivals
Number Arrival From Airline

Current Delays

Departures
N/A
Arrivals
N/A

Destinations

Top Destinations
Airport Flights
per week
Seats
per week
  Panama City (ECP) 0 - 0 0
  Memphis (MEM) 0 - 0 0
  Destin (DSI) 0 - 0 0
  Albuquerque (ABQ) 0 - 0 0
  Mamburao (MBO) 0 - 0 0
  Pensacola (PNS) 0 - 0 0
  Gulf Shores (GUF) 0 - 0 0
  New Orleans (NEW) 0 - 0 0
  Pell City (PLR) 0 - 0 0
  Shreveport (DTN) 0 - 0 0
  Dallas (ADS) 0 - 0 0
  Dallas (DAL) 0 - 0 0

Airlines & Planes

Top Airlines
Airline Flights
per Day
Seats
per Day
  Flybe Nordic 0 -
  Novair 0 -
  Nolinor Aviation 0 -
Jet Charter Inc ( Franklin Lakes Nj ) 0 -
Nordwind Airlines 0 -
Top Plane Types
Model Flights Seats
Cessna C172 0.2/day - 0
Beech E90 King Air 0.2/day - 0
Cessna C182 0.1/day - 0
Cessna C560 0.1/day - 0
Mooney M20K 0.1/day - 0
Cessna C152 0.0/day - 0
Piper PA28-181 0.0/day - 0